createdAt,value
2022-08-08T00:00:51.038Z,22.59
2022-08-08T00:03:32.011Z,22.61
2022-08-08T00:06:12.828Z,22.62
2022-08-08T00:09:04.129Z,22.77
2022-08-08T00:11:47.109Z,22.85
2022-08-08T00:14:59.017Z,22.97
2022-08-08T00:17:35.383Z,23.00
2022-08-08T00:20:25.730Z,22.85
2022-08-08T00:22:59.984Z,22.69
2022-08-08T00:25:46.332Z,22.57
2022-08-08T00:28:35.622Z,22.76
2022-08-08T00:32:16.359Z,22.77
2022-08-08T00:34:52.931Z,22.51
2022-08-08T00:37:46.874Z,22.36
2022-08-08T00:41:10.572Z,22.28
2022-08-08T00:44:00.695Z,21.94
2022-08-08T00:46:57.026Z,21.92
2022-08-08T00:49:42.262Z,21.97
2022-08-08T00:52:39.161Z,21.91
2022-08-08T00:55:35.951Z,21.94
2022-08-08T00:58:31.932Z,21.89
2022-08-08T01:01:11.530Z,21.85
2022-08-08T01:04:07.100Z,21.80
2022-08-08T01:07:16.225Z,21.81
2022-08-08T01:10:16.132Z,21.86
2022-08-08T01:12:47.268Z,21.93
2022-08-08T01:15:54.142Z,21.97
2022-08-08T01:18:53.524Z,21.86
2022-08-08T01:22:12.181Z,21.92
2022-08-08T01:24:38.449Z,21.90
2022-08-08T01:27:44.106Z,21.76
2022-08-08T01:30:21.360Z,21.66
2022-08-08T01:33:54.195Z,21.64
2022-08-08T01:37:51.131Z,21.71
2022-08-08T01:40:35.682Z,21.81
2022-08-08T01:43:24.968Z,21.73
2022-08-08T01:46:21.871Z,21.77
2022-08-08T01:49:23.028Z,21.79
2022-08-08T01:52:59.154Z,21.70
2022-08-08T01:56:28.799Z,21.68
2022-08-08T01:58:47.077Z,21.77
2022-08-08T02:01:59.555Z,21.70
2022-08-08T02:04:48.250Z,21.83
2022-08-08T02:07:41.698Z,21.85
2022-08-08T02:10:29.744Z,21.74
2022-08-08T02:13:53.006Z,21.60
2022-08-08T02:16:50.681Z,21.63
2022-08-08T02:19:57.152Z,21.52
2022-08-08T02:22:31.986Z,21.31
2022-08-08T02:26:18.245Z,21.33
2022-08-08T02:29:03.807Z,21.45
2022-08-08T02:32:05.386Z,21.47
2022-08-08T02:35:10.735Z,21.32
2022-08-08T02:37:56.696Z,21.20
2022-08-08T02:41:03.138Z,21.27
2022-08-08T02:44:37.709Z,21.13
2022-08-08T02:51:55.170Z,21.40
2022-08-08T02:59:57.596Z,21.01
2022-08-08T03:03:05.616Z,21.10
2022-08-08T03:06:07.653Z,21.21
2022-08-08T03:09:04.478Z,21.30
2022-08-08T03:16:35.782Z,21.25
2022-08-08T03:19:20.783Z,21.36
2022-08-08T03:21:58.761Z,21.40
2022-08-08T03:24:30.095Z,21.44
2022-08-08T03:27:43.643Z,21.45
2022-08-08T03:30:32.167Z,21.70
2022-08-08T03:33:57.044Z,21.61
2022-08-08T03:42:11.530Z,21.74
2022-08-08T03:44:35.029Z,21.66
2022-08-08T03:47:19.182Z,21.55
2022-08-08T03:50:00.867Z,21.55
2022-08-08T03:52:36.065Z,21.54
2022-08-08T03:55:55.159Z,21.47
2022-08-08T03:58:31.084Z,21.33
2022-08-08T04:01:23.080Z,21.37
2022-08-08T04:03:58.958Z,21.33
2022-08-08T04:06:30.986Z,21.37
2022-08-08T04:10:05.148Z,21.54
2022-08-08T04:14:02.691Z,21.64
2022-08-08T04:16:20.794Z,21.67
2022-08-08T04:20:28.642Z,21.71
2022-08-08T04:26:35.517Z,21.73
2022-08-08T04:29:11.148Z,21.83
2022-08-08T04:31:58.656Z,21.83
2022-08-08T04:34:32.387Z,21.94
2022-08-08T04:37:12.546Z,22.05
2022-08-08T04:40:04.022Z,22.18
2022-08-08T04:42:36.596Z,22.27
2022-08-08T04:45:07.722Z,22.57
2022-08-08T04:47:46.251Z,22.52
2022-08-08T04:50:23.919Z,22.75
2022-08-08T04:52:58.545Z,22.46
2022-08-08T04:55:37.675Z,22.39
2022-08-08T04:58:17.603Z,22.51
2022-08-08T05:00:47.581Z,22.78
2022-08-08T05:03:18.969Z,22.84
2022-08-08T05:06:13.108Z,22.88
2022-08-08T05:08:51.680Z,22.96
2022-08-08T05:11:24.393Z,23.12
2022-08-08T08:43:33.576Z,31.78
2022-08-08T08:46:17.728Z,31.68
2022-08-08T08:48:51.596Z,31.82
2022-08-08T08:55:49.507Z,32.32
2022-08-08T08:58:52.368Z,31.52
2022-08-08T09:01:47.856Z,31.65
2022-08-08T09:04:31.034Z,30.10
2022-08-08T09:07:12.259Z,30.36
2022-08-08T09:10:04.837Z,30.15
2022-08-08T09:12:46.571Z,30.89
2022-08-08T09:15:41.333Z,31.13
2022-08-08T09:19:07.244Z,30.13
2022-08-08T09:22:01.801Z,31.25
2022-08-08T09:42:52.104Z,31.69
2022-08-08T09:45:54.752Z,31.45
2022-08-08T09:48:28.923Z,30.96
2022-08-08T09:51:06.180Z,31.61
2022-08-08T09:58:48.979Z,32.94
2022-08-08T10:06:19.267Z,32.07
2022-08-08T10:32:05.536Z,33.40
2022-08-08T10:45:23.100Z,33.18
2022-08-08T11:09:32.154Z,31.22
2022-08-08T11:12:13.515Z,31.63
2022-08-08T11:14:53.079Z,32.86
2022-08-08T11:17:59.684Z,33.72
2022-08-08T11:20:18.103Z,33.37
2022-08-08T11:22:55.334Z,32.69
2022-08-08T11:25:52.150Z,32.41
2022-08-08T11:28:23.054Z,32.94
2022-08-08T11:30:57.916Z,33.12
2022-08-08T11:33:51.027Z,31.95
2022-08-08T11:36:16.544Z,32.73
2022-08-08T11:38:53.999Z,31.64
2022-08-08T11:41:32.566Z,30.88
2022-08-08T11:44:02.851Z,30.98
2022-08-08T11:46:36.807Z,30.81
2022-08-08T11:49:09.352Z,31.44
2022-08-08T11:51:49.914Z,31.35
2022-08-08T11:54:33.473Z,31.35
2022-08-08T11:57:14.178Z,31.41
2022-08-08T12:00:07.318Z,31.42
2022-08-08T12:02:51.110Z,31.83
2022-08-08T12:05:36.345Z,31.65
2022-08-08T12:08:04.817Z,31.27
2022-08-08T12:10:33.657Z,31.00
2022-08-08T12:13:10.674Z,31.21
2022-08-08T12:15:46.862Z,30.86
2022-08-08T12:18:24.573Z,31.09
2022-08-08T12:20:55.229Z,31.50
2022-08-08T12:23:44.024Z,31.62
2022-08-08T12:26:42.694Z,31.42
2022-08-08T12:29:36.502Z,31.11
2022-08-08T12:32:17.314Z,31.20
2022-08-08T12:34:52.954Z,31.22
2022-08-08T12:37:41.560Z,31.11
2022-08-08T12:40:24.085Z,31.17
2022-08-08T12:48:36.428Z,31.08
2022-08-08T12:51:10.761Z,30.73
2022-08-08T12:53:58.976Z,31.01
2022-08-08T13:02:09.593Z,31.43
2022-08-08T13:04:37.705Z,30.66
2022-08-08T13:07:12.071Z,30.88
2022-08-08T13:10:10.736Z,31.08
2022-08-08T13:12:47.037Z,31.38
2022-08-08T13:15:26.483Z,31.13
2022-08-08T13:18:11.266Z,31.68
2022-08-08T13:26:19.596Z,31.71
2022-08-08T13:37:05.995Z,31.73
2022-08-08T13:42:25.426Z,31.97
2022-08-08T13:47:55.651Z,31.71
2022-08-08T13:50:39.645Z,31.54
2022-08-08T13:56:12.366Z,32.00
2022-08-08T14:01:52.503Z,31.63
2022-08-08T14:04:24.376Z,31.36
2022-08-08T14:07:04.638Z,31.53
2022-08-08T14:10:05.688Z,31.20
2022-08-08T14:12:28.328Z,31.66
2022-08-08T14:14:56.691Z,31.39
2022-08-08T14:17:58.900Z,31.36
2022-08-08T14:20:15.545Z,31.79
2022-08-08T14:24:04.238Z,31.67
2022-08-08T14:26:27.968Z,31.27
2022-08-08T14:28:58.832Z,31.51
2022-08-08T14:32:06.012Z,31.42
2022-08-08T14:34:22.979Z,31.29
2022-08-08T14:36:56.147Z,31.56
2022-08-08T14:39:24.663Z,31.37
2022-08-08T14:42:03.362Z,30.98
2022-08-08T14:44:39.396Z,31.01
2022-08-08T14:47:16.872Z,31.13
2022-08-08T14:50:06.461Z,31.03
2022-08-08T14:52:53.120Z,31.16
2022-08-08T14:55:35.262Z,31.12
2022-08-08T14:58:11.677Z,31.38
2022-08-08T15:00:45.241Z,30.89
2022-08-08T15:03:17.079Z,30.93
2022-08-08T15:05:53.301Z,31.07
2022-08-08T15:08:35.541Z,30.98
2022-08-08T15:11:08.981Z,30.92
2022-08-08T15:14:02.795Z,30.63
2022-08-08T15:16:34.672Z,30.52
2022-08-08T15:19:03.582Z,30.63
2022-08-08T15:21:31.327Z,30.99
2022-08-08T15:23:59.422Z,30.87
2022-08-08T15:26:28.903Z,30.75
2022-08-08T15:28:57.441Z,31.02
2022-08-08T15:32:03.232Z,31.11
2022-08-08T15:34:18.494Z,31.30
2022-08-08T15:37:03.126Z,31.14
2022-08-08T15:39:38.453Z,31.01
2022-08-08T15:42:18.169Z,31.09
2022-08-08T15:45:01.471Z,30.88
2022-08-08T15:47:31.981Z,31.16
2022-08-08T15:50:00.095Z,30.85
2022-08-08T15:52:27.941Z,30.72
2022-08-08T15:54:58.910Z,31.07
2022-08-08T15:57:39.747Z,30.78
2022-08-08T16:00:28.413Z,30.50
2022-08-08T16:03:06.434Z,30.76
2022-08-08T16:32:38.044Z,30.27
2022-08-08T16:35:26.012Z,30.39
2022-08-08T16:37:54.870Z,30.36
2022-08-08T16:40:29.155Z,30.36
2022-08-08T16:42:59.481Z,30.47
2022-08-08T16:46:37.691Z,30.27
2022-08-08T16:48:15.909Z,30.18
2022-08-08T16:50:44.112Z,30.16
2022-08-08T16:55:04.080Z,30.27
2022-08-08T16:56:14.139Z,30.11
2022-08-08T16:58:42.878Z,30.06
2022-08-08T17:01:13.007Z,30.09
2022-08-08T17:04:00.293Z,30.12
2022-08-08T17:06:36.189Z,29.97
2022-08-08T17:09:06.017Z,29.84
2022-08-08T17:11:48.128Z,29.86
2022-08-08T17:14:19.427Z,29.76
2022-08-08T17:16:51.885Z,29.88
2022-08-08T17:19:30.216Z,29.86
2022-08-08T17:22:01.890Z,29.70
2022-08-08T17:24:31.095Z,29.76
2022-08-08T17:27:01.216Z,29.65
2022-08-08T17:29:33.714Z,29.59
2022-08-08T17:32:04.380Z,29.56
2022-08-08T17:34:53.384Z,29.64
2022-08-08T17:37:23.143Z,29.67
2022-08-08T17:40:06.191Z,29.61
2022-08-08T17:46:07.943Z,29.45
2022-08-08T17:48:35.593Z,29.34
2022-08-08T17:51:03.220Z,29.30
2022-08-08T17:53:42.730Z,29.25
2022-08-08T17:56:11.319Z,29.08
2022-08-08T17:58:39.947Z,28.96
2022-08-08T18:01:10.225Z,28.85
2022-08-08T18:03:38.543Z,28.70
2022-08-08T18:06:21.986Z,28.63
2022-08-08T18:08:55.366Z,28.51
2022-08-08T18:11:23.123Z,28.46
2022-08-08T18:13:50.654Z,28.41
2022-08-08T18:16:23.442Z,28.28
2022-08-08T18:18:58.610Z,28.22
2022-08-08T18:21:58.942Z,28.04
2022-08-08T18:24:24.400Z,27.92
2022-08-08T18:27:00.891Z,27.69
2022-08-08T18:29:37.223Z,27.53
2022-08-08T18:32:08.599Z,27.37
2022-08-08T18:34:40.390Z,27.49
2022-08-08T18:37:17.761Z,27.44
2022-08-08T18:39:59.687Z,27.51
2022-08-08T18:42:27.842Z,27.54
2022-08-08T18:44:57.393Z,27.39
2022-08-08T18:47:26.762Z,27.30
2022-08-08T18:49:58.638Z,27.27
2022-08-08T18:52:29.709Z,27.20
2022-08-08T18:55:10.933Z,27.14
2022-08-08T18:57:43.360Z,27.17
2022-08-08T19:00:20.459Z,27.09
2022-08-08T19:02:57.838Z,27.10
2022-08-08T19:05:38.519Z,27.01
2022-08-08T19:08:24.864Z,27.06
2022-08-08T19:11:01.733Z,27.03
2022-08-08T19:13:38.330Z,26.87
2022-08-08T19:16:20.357Z,26.67
2022-08-08T19:19:00.453Z,26.76
2022-08-08T19:21:33.352Z,26.80
2022-08-08T19:24:39.102Z,26.72
2022-08-08T19:27:05.782Z,26.66
2022-08-08T19:29:35.681Z,26.73
2022-08-08T19:32:12.836Z,26.71
2022-08-08T19:34:41.973Z,26.59
2022-08-08T19:37:15.975Z,26.67
2022-08-08T19:39:45.500Z,26.73
2022-08-08T19:42:13.776Z,26.56
2022-08-08T19:44:45.593Z,26.70
2022-08-08T19:47:14.636Z,26.53
2022-08-08T19:50:00.083Z,26.41
2022-08-08T19:52:35.043Z,26.31
2022-08-08T19:55:09.647Z,26.23
2022-08-08T19:57:41.258Z,26.06
2022-08-08T20:00:29.321Z,25.92
2022-08-08T20:03:14.565Z,26.04
2022-08-08T20:06:14.361Z,26.12
2022-08-08T20:08:38.991Z,26.13
2022-08-08T20:11:10.264Z,26.23
2022-08-08T20:14:12.475Z,26.15
2022-08-08T20:16:29.790Z,26.30
2022-08-08T20:18:59.495Z,26.23
2022-08-08T20:21:31.918Z,26.42
2022-08-08T20:24:07.749Z,26.39
2022-08-08T20:26:38.190Z,26.39
2022-08-08T20:29:06.954Z,26.34
2022-08-08T20:32:07.243Z,26.32
2022-08-08T20:34:29.834Z,26.28
2022-08-08T20:37:02.240Z,26.11
2022-08-08T20:39:39.295Z,25.93
2022-08-08T20:42:29.571Z,25.93
2022-08-08T20:44:59.016Z,25.99
2022-08-08T20:47:35.927Z,25.73
2022-08-08T20:50:14.785Z,25.74
2022-08-08T20:52:48.224Z,25.77
2022-08-08T20:55:25.620Z,25.65
2022-08-08T20:57:54.124Z,25.77
2022-08-08T21:00:26.179Z,25.74
2022-08-08T21:02:54.299Z,25.68
2022-08-08T21:05:49.223Z,25.54
2022-08-08T21:08:36.208Z,25.52
2022-08-08T21:11:11.744Z,25.54
2022-08-08T21:13:40.918Z,25.41
2022-08-08T21:16:20.565Z,25.45
2022-08-08T21:18:59.859Z,25.46
2022-08-08T21:21:39.534Z,25.51
2022-08-08T21:24:19.246Z,25.39
2022-08-08T21:26:58.085Z,25.49
2022-08-08T21:30:03.001Z,25.68
2022-08-08T21:32:24.952Z,25.66
2022-08-08T21:36:14.381Z,25.80
2022-08-08T21:37:55.743Z,25.91
2022-08-08T21:40:42.326Z,25.81
2022-08-08T21:43:33.882Z,26.19
2022-08-08T21:48:07.422Z,26.36
2022-08-08T21:49:47.639Z,26.46
2022-08-08T21:54:33.710Z,26.42
2022-08-08T21:56:18.096Z,26.48
2022-08-08T21:58:07.599Z,26.54
2022-08-08T22:00:43.888Z,26.73
2022-08-08T22:03:14.410Z,26.70
2022-08-08T22:05:45.924Z,26.69
2022-08-08T22:08:16.261Z,26.68
2022-08-08T22:10:54.019Z,26.59
2022-08-08T22:13:22.419Z,26.59
2022-08-08T22:15:59.616Z,26.46
2022-08-08T22:18:30.166Z,26.72
2022-08-08T22:21:13.923Z,26.70
2022-08-08T22:23:51.387Z,26.73
2022-08-08T22:26:30.015Z,26.72
2022-08-08T22:29:14.853Z,26.65
2022-08-08T22:32:02.290Z,26.72
2022-08-08T22:34:33.078Z,26.61
2022-08-08T22:37:14.782Z,26.48
2022-08-08T22:40:00.877Z,26.54
2022-08-08T22:42:34.347Z,26.64
2022-08-08T22:45:05.302Z,26.51
2022-08-08T22:47:41.061Z,26.50
2022-08-08T22:50:27.033Z,26.50
2022-08-08T22:54:28.481Z,26.47
2022-08-08T22:55:59.158Z,26.40
2022-08-08T22:58:34.169Z,26.43
2022-08-08T23:01:26.484Z,26.36
2022-08-08T23:04:00.271Z,26.25
2022-08-08T23:06:30.603Z,26.25
2022-08-08T23:09:00.476Z,26.24
2022-08-08T23:12:17.971Z,26.16
2022-08-08T23:14:25.594Z,26.17
2022-08-08T23:16:59.223Z,26.05
2022-08-08T23:19:30.978Z,26.05
2022-08-08T23:22:04.176Z,26.14
2022-08-08T23:24:41.683Z,26.26
2022-08-08T23:27:17.300Z,26.17
2022-08-08T23:29:59.602Z,26.19
2022-08-08T23:32:27.526Z,26.30
2022-08-08T23:34:58.819Z,26.25
2022-08-08T23:38:00.747Z,26.26
2022-08-08T23:40:22.058Z,26.36
2022-08-08T23:42:51.545Z,26.25
2022-08-08T23:45:19.511Z,26.22
2022-08-08T23:49:05.199Z,26.27
2022-08-08T23:50:59.511Z,26.24
2022-08-08T23:54:05.122Z,26.17
2022-08-08T23:56:32.012Z,25.96
2022-08-08T23:59:04.642Z,26.19
